sensor_id;sensor_type;location;lat;lon;timestamp;P1;durP1;ratioP1;P2;durP2;ratioP2
20069;SDS011;10195;50.868;4.382;2023-04-01T00:00:26;11.23;;;3.00;;
20069;SDS011;10195;50.868;4.382;2023-04-01T00:02:52;10.33;;;2.67;;
20069;SDS011;10195;50.868;4.382;2023-04-01T00:05:17;8.07;;;2.57;;
20069;SDS011;10195;50.868;4.382;2023-04-01T00:07:43;10.17;;;2.43;;
20069;SDS011;10195;50.868;4.382;2023-04-01T00:10:10;8.37;;;2.30;;
20069;SDS011;10195;50.868;4.382;2023-04-01T00:12:37;11.07;;;2.30;;
20069;SDS011;10195;50.868;4.382;2023-04-01T00:15:04;12.13;;;2.90;;
20069;SDS011;10195;50.868;4.382;2023-04-01T00:17:30;12.23;;;2.73;;
20069;SDS011;10195;50.868;4.382;2023-04-01T00:19:56;8.70;;;2.43;;
20069;SDS011;10195;50.868;4.382;2023-04-01T00:22:25;12.73;;;3.30;;
20069;SDS011;10195;50.868;4.382;2023-04-01T00:24:52;8.03;;;1.93;;
20069;SDS011;10195;50.868;4.382;2023-04-01T00:27:18;10.50;;;2.63;;
20069;SDS011;10195;50.868;4.382;2023-04-01T00:29:45;10.17;;;2.40;;
20069;SDS011;10195;50.868;4.382;2023-04-01T00:32:12;10.47;;;2.47;;
20069;SDS011;10195;50.868;4.382;2023-04-01T00:34:38;8.00;;;2.70;;
20069;SDS011;10195;50.868;4.382;2023-04-01T00:37:06;8.30;;;2.40;;
20069;SDS011;10195;50.868;4.382;2023-04-01T00:39:33;7.57;;;2.70;;
20069;SDS011;10195;50.868;4.382;2023-04-01T00:42:00;7.03;;;2.47;;
20069;SDS011;10195;50.868;4.382;2023-04-01T00:44:29;8.20;;;2.20;;
20069;SDS011;10195;50.868;4.382;2023-04-01T00:46:57;6.53;;;2.20;;
20069;SDS011;10195;50.868;4.382;2023-04-01T00:49:25;9.37;;;2.63;;
20069;SDS011;10195;50.868;4.382;2023-04-01T00:51:55;5.70;;;2.17;;
20069;SDS011;10195;50.868;4.382;2023-04-01T00:54:25;8.73;;;2.33;;
20069;SDS011;10195;50.868;4.382;2023-04-01T00:56:59;5.70;;;2.10;;
20069;SDS011;10195;50.868;4.382;2023-04-01T00:59:34;6.47;;;1.70;;
20069;SDS011;10195;50.868;4.382;2023-04-01T01:02:05;3.07;;;1.17;;
20069;SDS011;10195;50.868;4.382;2023-04-01T01:04:34;4.67;;;1.80;;
20069;SDS011;10195;50.868;4.382;2023-04-01T01:09:43;6.10;;;1.40;;
20069;SDS011;10195;50.868;4.382;2023-04-01T01:12:20;9.27;;;1.90;;
20069;SDS011;10195;50.868;4.382;2023-04-01T01:15:02;9.50;;;2.40;;
20069;SDS011;10195;50.868;4.382;2023-04-01T01:17:50;5.97;;;1.97;;
20069;SDS011;10195;50.868;4.382;2023-04-01T01:36:25;3.83;;;1.77;;
20069;SDS011;10195;50.868;4.382;2023-04-01T01:38:55;3.07;;;1.47;;
20069;SDS011;10195;50.868;4.382;2023-04-01T01:41:21;3.47;;;1.60;;
20069;SDS011;10195;50.868;4.382;2023-04-01T01:43:51;4.63;;;2.07;;
20069;SDS011;10195;50.868;4.382;2023-04-01T01:46:22;4.70;;;1.63;;
20069;SDS011;10195;50.868;4.382;2023-04-01T01:48:51;5.30;;;1.90;;
20069;SDS011;10195;50.868;4.382;2023-04-01T01:51:18;3.57;;;2.10;;
20069;SDS011;10195;50.868;4.382;2023-04-01T01:53:46;3.63;;;1.70;;
20069;SDS011;10195;50.868;4.382;2023-04-01T01:56:12;5.33;;;2.23;;
20069;SDS011;10195;50.868;4.382;2023-04-01T01:58:40;2.67;;;2.30;;
20069;SDS011;10195;50.868;4.382;2023-04-01T02:01:12;6.47;;;3.27;;
20069;SDS011;10195;50.868;4.382;2023-04-01T02:03:50;6.83;;;3.20;;
20069;SDS011;10195;50.868;4.382;2023-04-01T02:06:19;8.53;;;3.60;;
20069;SDS011;10195;50.868;4.382;2023-04-01T02:08:49;9.03;;;3.50;;
20069;SDS011;10195;50.868;4.382;2023-04-01T02:11:44;10.40;;;4.30;;
20069;SDS011;10195;50.868;4.382;2023-04-01T02:14:14;2.27;;;1.83;;
20069;SDS011;10195;50.868;4.382;2023-04-01T02:16:57;10.00;;;3.00;;
20069;SDS011;10195;50.868;4.382;2023-04-01T02:19:31;5.37;;;2.70;;
20069;SDS011;10195;50.868;4.382;2023-04-01T02:22:03;7.43;;;2.80;;
20069;SDS011;10195;50.868;4.382;2023-04-01T02:24:33;6.77;;;2.50;;
20069;SDS011;10195;50.868;4.382;2023-04-01T02:27:00;6.60;;;3.00;;
20069;SDS011;10195;50.868;4.382;2023-04-01T02:29:26;9.83;;;3.50;;
20069;SDS011;10195;50.868;4.382;2023-04-01T02:31:53;3.90;;;2.50;;
20069;SDS011;10195;50.868;4.382;2023-04-01T02:34:21;4.23;;;2.40;;
20069;SDS011;10195;50.868;4.382;2023-04-01T02:36:49;7.43;;;3.00;;
20069;SDS011;10195;50.868;4.382;2023-04-01T02:39:15;9.00;;;2.50;;
20069;SDS011;10195;50.868;4.382;2023-04-01T02:41:42;12.70;;;3.03;;
20069;SDS011;10195;50.868;4.382;2023-04-01T02:44:10;8.40;;;2.20;;
20069;SDS011;10195;50.868;4.382;2023-04-01T02:46:37;7.13;;;2.77;;
20069;SDS011;10195;50.868;4.382;2023-04-01T02:49:03;8.77;;;3.00;;
20069;SDS011;10195;50.868;4.382;2023-04-01T02:51:29;13.00;;;3.50;;
20069;SDS011;10195;50.868;4.382;2023-04-01T02:53:55;14.37;;;3.17;;
20069;SDS011;10195;50.868;4.382;2023-04-01T02:56:20;9.40;;;3.00;;
20069;SDS011;10195;50.868;4.382;2023-04-01T02:58:46;9.20;;;3.20;;
20069;SDS011;10195;50.868;4.382;2023-04-01T03:01:12;7.03;;;2.23;;
20069;SDS011;10195;50.868;4.382;2023-04-01T03:03:38;9.60;;;3.23;;
20069;SDS011;10195;50.868;4.382;2023-04-01T03:06:08;6.20;;;2.20;;
20069;SDS011;10195;50.868;4.382;2023-04-01T03:08:35;8.53;;;2.80;;
20069;SDS011;10195;50.868;4.382;2023-04-01T03:11:01;9.37;;;3.03;;
20069;SDS011;10195;50.868;4.382;2023-04-01T03:13:27;10.67;;;2.90;;
20069;SDS011;10195;50.868;4.382;2023-04-01T03:15:53;7.43;;;2.43;;
20069;SDS011;10195;50.868;4.382;2023-04-01T03:18:18;6.23;;;2.60;;
20069;SDS011;10195;50.868;4.382;2023-04-01T03:20:44;11.83;;;3.67;;
20069;SDS011;10195;50.868;4.382;2023-04-01T03:23:10;6.47;;;3.60;;
20069;SDS011;10195;50.868;4.382;2023-04-01T03:25:36;6.00;;;3.67;;
20069;SDS011;10195;50.868;4.382;2023-04-01T03:28:02;10.97;;;4.10;;
20069;SDS011;10195;50.868;4.382;2023-04-01T03:30:28;6.77;;;3.43;;
20069;SDS011;10195;50.868;4.382;2023-04-01T03:32:57;11.73;;;3.43;;
20069;SDS011;10195;50.868;4.382;2023-04-01T03:35:24;10.00;;;4.30;;
20069;SDS011;10195;50.868;4.382;2023-04-01T03:37:50;11.23;;;4.53;;
20069;SDS011;10195;50.868;4.382;2023-04-01T03:40:16;9.97;;;4.27;;
20069;SDS011;10195;50.868;4.382;2023-04-01T03:42:42;15.47;;;5.20;;
20069;SDS011;10195;50.868;4.382;2023-04-01T03:45:08;10.20;;;5.30;;
20069;SDS011;10195;50.868;4.382;2023-04-01T03:47:35;11.33;;;5.20;;
20069;SDS011;10195;50.868;4.382;2023-04-01T03:50:00;14.67;;;5.03;;
20069;SDS011;10195;50.868;4.382;2023-04-01T03:52:27;15.00;;;5.77;;
20069;SDS011;10195;50.868;4.382;2023-04-01T03:54:53;14.17;;;5.70;;
20069;SDS011;10195;50.868;4.382;2023-04-01T03:57:19;15.83;;;6.30;;
20069;SDS011;10195;50.868;4.382;2023-04-01T03:59:44;11.33;;;4.83;;
20069;SDS011;10195;50.868;4.382;2023-04-01T04:02:10;13.17;;;5.90;;
20069;SDS011;10195;50.868;4.382;2023-04-01T04:04:35;13.93;;;5.43;;
20069;SDS011;10195;50.868;4.382;2023-04-01T04:07:01;12.10;;;5.60;;
20069;SDS011;10195;50.868;4.382;2023-04-01T04:09:27;18.63;;;4.93;;
20069;SDS011;10195;50.868;4.382;2023-04-01T04:11:54;14.67;;;4.70;;
20069;SDS011;10195;50.868;4.382;2023-04-01T04:14:20;9.60;;;5.03;;
20069;SDS011;10195;50.868;4.382;2023-04-01T04:16:46;15.87;;;5.43;;
20069;SDS011;10195;50.868;4.382;2023-04-01T04:19:11;11.87;;;4.87;;
20069;SDS011;10195;50.868;4.382;2023-04-01T04:21:37;11.93;;;4.87;;
20069;SDS011;10195;50.868;4.382;2023-04-01T04:24:04;12.63;;;4.37;;
20069;SDS011;10195;50.868;4.382;2023-04-01T04:26:30;10.33;;;4.47;;
20069;SDS011;10195;50.868;4.382;2023-04-01T04:28:58;9.87;;;4.33;;
20069;SDS011;10195;50.868;4.382;2023-04-01T04:31:25;7.47;;;4.20;;
20069;SDS011;10195;50.868;4.382;2023-04-01T04:33:51;12.10;;;4.00;;
20069;SDS011;10195;50.868;4.382;2023-04-01T04:36:18;8.33;;;3.80;;
20069;SDS011;10195;50.868;4.382;2023-04-01T04:38:44;8.40;;;4.03;;
20069;SDS011;10195;50.868;4.382;2023-04-01T04:41:10;6.43;;;3.20;;
20069;SDS011;10195;50.868;4.382;2023-04-01T04:43:40;4.13;;;3.07;;
20069;SDS011;10195;50.868;4.382;2023-04-01T04:46:07;6.23;;;3.07;;
20069;SDS011;10195;50.868;4.382;2023-04-01T04:48:33;8.47;;;3.67;;
20069;SDS011;10195;50.868;4.382;2023-04-01T04:50:58;5.30;;;3.10;;
20069;SDS011;10195;50.868;4.382;2023-04-01T04:53:24;5.83;;;3.40;;
20069;SDS011;10195;50.868;4.382;2023-04-01T04:55:51;4.77;;;2.60;;
20069;SDS011;10195;50.868;4.382;2023-04-01T04:58:17;4.73;;;2.80;;
20069;SDS011;10195;50.868;4.382;2023-04-01T05:00:43;2.80;;;1.97;;
20069;SDS011;10195;50.868;4.382;2023-04-01T05:03:09;6.00;;;2.57;;
20069;SDS011;10195;50.868;4.382;2023-04-01T05:05:35;6.97;;;2.67;;
20069;SDS011;10195;50.868;4.382;2023-04-01T05:08:01;13.83;;;2.67;;
20069;SDS011;10195;50.868;4.382;2023-04-01T05:10:26;5.93;;;2.70;;
20069;SDS011;10195;50.868;4.382;2023-04-01T05:12:52;4.53;;;3.00;;
20069;SDS011;10195;50.868;4.382;2023-04-01T05:15:18;4.17;;;2.80;;
20069;SDS011;10195;50.868;4.382;2023-04-01T05:17:44;7.20;;;2.90;;
20069;SDS011;10195;50.868;4.382;2023-04-01T05:20:11;4.60;;;3.00;;
20069;SDS011;10195;50.868;4.382;2023-04-01T05:22:38;5.53;;;3.50;;
20069;SDS011;10195;50.868;4.382;2023-04-01T05:25:03;8.27;;;3.70;;
20069;SDS011;10195;50.868;4.382;2023-04-01T05:27:29;5.23;;;3.70;;
20069;SDS011;10195;50.868;4.382;2023-04-01T05:29:55;7.10;;;3.30;;
20069;SDS011;10195;50.868;4.382;2023-04-01T05:32:21;7.93;;;3.40;;
20069;SDS011;10195;50.868;4.382;2023-04-01T05:34:49;8.73;;;4.20;;
20069;SDS011;10195;50.868;4.382;2023-04-01T05:37:16;9.40;;;4.53;;
20069;SDS011;10195;50.868;4.382;2023-04-01T05:39:42;5.67;;;4.10;;
20069;SDS011;10195;50.868;4.382;2023-04-01T05:42:08;8.33;;;5.07;;
20069;SDS011;10195;50.868;4.382;2023-04-01T05:44:34;11.03;;;5.97;;
20069;SDS011;10195;50.868;4.382;2023-04-01T05:47:00;10.47;;;5.40;;
20069;SDS011;10195;50.868;4.382;2023-04-01T05:49:26;12.77;;;5.33;;
20069;SDS011;10195;50.868;4.382;2023-04-01T05:51:52;8.17;;;3.97;;
20069;SDS011;10195;50.868;4.382;2023-04-01T05:54:18;9.93;;;5.47;;
20069;SDS011;10195;50.868;4.382;2023-04-01T05:56:44;10.80;;;5.40;;
20069;SDS011;10195;50.868;4.382;2023-04-01T05:59:10;8.70;;;5.50;;
20069;SDS011;10195;50.868;4.382;2023-04-01T06:01:36;11.93;;;5.67;;
20069;SDS011;10195;50.868;4.382;2023-04-01T06:04:03;8.23;;;5.63;;
20069;SDS011;10195;50.868;4.382;2023-04-01T06:06:29;10.33;;;5.23;;
20069;SDS011;10195;50.868;4.382;2023-04-01T06:09:16;9.57;;;6.23;;
20069;SDS011;10195;50.868;4.382;2023-04-01T06:12:01;13.03;;;6.40;;
20069;SDS011;10195;50.868;4.382;2023-04-01T06:17:26;15.23;;;6.87;;
20069;SDS011;10195;50.868;4.382;2023-04-01T06:20:16;14.20;;;5.70;;
20069;SDS011;10195;50.868;4.382;2023-04-01T06:25:39;12.80;;;6.80;;
20069;SDS011;10195;50.868;4.382;2023-04-01T06:30:58;11.50;;;6.87;;
20069;SDS011;10195;50.868;4.382;2023-04-01T06:56:02;11.40;;;6.00;;
20069;SDS011;10195;50.868;4.382;2023-04-01T07:04:05;17.73;;;8.67;;
20069;SDS011;10195;50.868;4.382;2023-04-01T07:06:54;8.37;;;5.80;;
20069;SDS011;10195;50.868;4.382;2023-04-01T07:09:28;8.43;;;5.37;;
20069;SDS011;10195;50.868;4.382;2023-04-01T07:12:00;10.33;;;4.73;;
20069;SDS011;10195;50.868;4.382;2023-04-01T07:14:29;9.27;;;4.77;;
20069;SDS011;10195;50.868;4.382;2023-04-01T07:17:17;9.97;;;5.83;;
20069;SDS011;10195;50.868;4.382;2023-04-01T07:22:39;4.07;;;2.80;;
20069;SDS011;10195;50.868;4.382;2023-04-01T07:25:17;7.07;;;3.90;;
20069;SDS011;10195;50.868;4.382;2023-04-01T07:27:44;2.27;;;1.60;;
20069;SDS011;10195;50.868;4.382;2023-04-01T07:32:47;5.40;;;2.60;;
20069;SDS011;10195;50.868;4.382;2023-04-01T07:35:35;5.27;;;2.17;;
20069;SDS011;10195;50.868;4.382;2023-04-01T07:38:29;2.90;;;1.80;;
20069;SDS011;10195;50.868;4.382;2023-04-01T07:57:20;4.13;;;3.03;;
20069;SDS011;10195;50.868;4.382;2023-04-01T08:00:09;1.67;;;1.57;;
20069;SDS011;10195;50.868;4.382;2023-04-01T08:05:29;3.77;;;3.00;;
20069;SDS011;10195;50.868;4.382;2023-04-01T08:10:53;3.07;;;2.47;;
20069;SDS011;10195;50.868;4.382;2023-04-01T08:13:44;3.63;;;1.90;;
20069;SDS011;10195;50.868;4.382;2023-04-01T08:22:36;2.33;;;1.73;;
20069;SDS011;10195;50.868;4.382;2023-04-01T08:25:06;2.87;;;2.27;;
20069;SDS011;10195;50.868;4.382;2023-04-01T08:31:09;2.20;;;1.63;;
20069;SDS011;10195;50.868;4.382;2023-04-01T08:33:33;3.03;;;1.60;;
20069;SDS011;10195;50.868;4.382;2023-04-01T08:36:02;2.13;;;1.30;;
20069;SDS011;10195;50.868;4.382;2023-04-01T08:40:58;2.10;;;1.30;;
20069;SDS011;10195;50.868;4.382;2023-04-01T08:46:51;12.27;;;2.20;;
20069;SDS011;10195;50.868;4.382;2023-04-01T08:57:13;3.27;;;1.30;;
20069;SDS011;10195;50.868;4.382;2023-04-01T09:05:46;3.97;;;2.67;;
20069;SDS011;10195;50.868;4.382;2023-04-01T09:11:42;2.30;;;1.70;;
20069;SDS011;10195;50.868;4.382;2023-04-01T09:14:23;3.93;;;1.80;;
20069;SDS011;10195;50.868;4.382;2023-04-01T09:17:34;2.20;;;1.83;;
20069;SDS011;10195;50.868;4.382;2023-04-01T09:20:02;1.63;;;1.37;;
20069;SDS011;10195;50.868;4.382;2023-04-01T09:42:44;15.33;;;7.67;;
20069;SDS011;10195;50.868;4.382;2023-04-01T09:50:59;6.53;;;3.50;;
20069;SDS011;10195;50.868;4.382;2023-04-01T10:02:04;8.30;;;4.83;;
20069;SDS011;10195;50.868;4.382;2023-04-01T10:16:08;3.23;;;1.90;;
20069;SDS011;10195;50.868;4.382;2023-04-01T10:18:56;3.40;;;1.80;;
20069;SDS011;10195;50.868;4.382;2023-04-01T10:24:26;6.00;;;2.60;;
20069;SDS011;10195;50.868;4.382;2023-04-01T10:35:29;5.30;;;2.00;;
20069;SDS011;10195;50.868;4.382;2023-04-01T11:01:56;2.27;;;1.10;;
20069;SDS011;10195;50.868;4.382;2023-04-01T11:10:32;4.33;;;2.30;;
20069;SDS011;10195;50.868;4.382;2023-04-01T11:30:40;2.70;;;1.50;;
20069;SDS011;10195;50.868;4.382;2023-04-01T11:44:55;3.33;;;2.10;;
20069;SDS011;10195;50.868;4.382;2023-04-01T11:47:36;4.40;;;2.30;;
20069;SDS011;10195;50.868;4.382;2023-04-01T11:50:23;6.07;;;2.60;;
20069;SDS011;10195;50.868;4.382;2023-04-01T11:59:04;2.53;;;1.97;;
20069;SDS011;10195;50.868;4.382;2023-04-01T12:07:15;3.57;;;2.00;;
20069;SDS011;10195;50.868;4.382;2023-04-01T12:21:11;3.97;;;2.00;;
20069;SDS011;10195;50.868;4.382;2023-04-01T12:24:00;4.33;;;2.53;;
20069;SDS011;10195;50.868;4.382;2023-04-01T12:26:35;4.80;;;2.00;;
20069;SDS011;10195;50.868;4.382;2023-04-01T12:29:14;2.83;;;1.83;;
20069;SDS011;10195;50.868;4.382;2023-04-01T12:32:30;5.00;;;2.77;;
20069;SDS011;10195;50.868;4.382;2023-04-01T12:42:58;4.03;;;2.97;;
20069;SDS011;10195;50.868;4.382;2023-04-01T12:45:53;3.40;;;2.63;;
20069;SDS011;10195;50.868;4.382;2023-04-01T12:48:44;2.90;;;1.90;;
20069;SDS011;10195;50.868;4.382;2023-04-01T12:51:36;2.60;;;2.13;;
20069;SDS011;10195;50.868;4.382;2023-04-01T13:34:27;2.97;;;1.70;;
20069;SDS011;10195;50.868;4.382;2023-04-01T13:42:39;3.03;;;1.63;;
20069;SDS011;10195;50.868;4.382;2023-04-01T14:07:16;3.10;;;1.70;;
20069;SDS011;10195;50.868;4.382;2023-04-01T14:10:18;1.63;;;1.33;;
20069;SDS011;10195;50.868;4.382;2023-04-01T14:20:39;2.30;;;1.40;;
20069;SDS011;10195;50.868;4.382;2023-04-01T14:26:20;3.53;;;1.90;;
20069;SDS011;10195;50.868;4.382;2023-04-01T14:49:30;2.30;;;1.30;;
20069;SDS011;10195;50.868;4.382;2023-04-01T14:54:41;2.53;;;1.40;;
20069;SDS011;10195;50.868;4.382;2023-04-01T14:57:13;5.10;;;1.50;;
20069;SDS011;10195;50.868;4.382;2023-04-01T14:59:49;1.37;;;1.17;;
20069;SDS011;10195;50.868;4.382;2023-04-01T15:05:27;2.77;;;1.20;;
20069;SDS011;10195;50.868;4.382;2023-04-01T15:13:25;2.73;;;1.40;;
20069;SDS011;10195;50.868;4.382;2023-04-01T15:19:20;3.20;;;1.40;;
20069;SDS011;10195;50.868;4.382;2023-04-01T15:30:39;3.97;;;1.70;;
20069;SDS011;10195;50.868;4.382;2023-04-01T15:53:12;2.77;;;2.03;;
20069;SDS011;10195;50.868;4.382;2023-04-01T16:07:10;3.17;;;1.70;;
20069;SDS011;10195;50.868;4.382;2023-04-01T16:29:08;2.37;;;1.50;;
20069;SDS011;10195;50.868;4.382;2023-04-01T16:34:33;3.50;;;1.23;;
20069;SDS011;10195;50.868;4.382;2023-04-01T16:37:03;2.17;;;1.30;;
20069;SDS011;10195;50.868;4.382;2023-04-01T16:39:36;3.00;;;1.70;;
20069;SDS011;10195;50.868;4.382;2023-04-01T16:42:12;4.00;;;1.70;;
20069;SDS011;10195;50.868;4.382;2023-04-01T16:45:00;3.27;;;1.87;;
20069;SDS011;10195;50.868;4.382;2023-04-01T16:47:53;4.40;;;2.03;;
20069;SDS011;10195;50.868;4.382;2023-04-01T16:53:25;3.57;;;1.83;;
20069;SDS011;10195;50.868;4.382;2023-04-01T16:56:25;2.07;;;1.00;;
20069;SDS011;10195;50.868;4.382;2023-04-01T17:01:47;2.83;;;2.00;;
20069;SDS011;10195;50.868;4.382;2023-04-01T17:04:42;3.20;;;1.73;;
20069;SDS011;10195;50.868;4.382;2023-04-01T17:24:14;6.37;;;2.33;;
20069;SDS011;10195;50.868;4.382;2023-04-01T17:26:50;2.53;;;1.93;;
20069;SDS011;10195;50.868;4.382;2023-04-01T17:29:46;3.43;;;2.37;;
20069;SDS011;10195;50.868;4.382;2023-04-01T17:44:28;4.10;;;2.00;;
20069;SDS011;10195;50.868;4.382;2023-04-01T17:58:18;6.43;;;3.30;;
20069;SDS011;10195;50.868;4.382;2023-04-01T18:03:44;4.20;;;2.90;;
20069;SDS011;10195;50.868;4.382;2023-04-01T18:12:03;8.23;;;5.00;;
20069;SDS011;10195;50.868;4.382;2023-04-01T18:17:25;5.90;;;3.83;;
20069;SDS011;10195;50.868;4.382;2023-04-01T18:25:37;4.73;;;4.23;;
20069;SDS011;10195;50.868;4.382;2023-04-01T18:38:33;10.03;;;5.73;;
20069;SDS011;10195;50.868;4.382;2023-04-01T18:41:14;10.93;;;8.07;;
20069;SDS011;10195;50.868;4.382;2023-04-01T18:44:03;16.30;;;8.97;;
20069;SDS011;10195;50.868;4.382;2023-04-01T18:49:41;9.63;;;5.97;;
20069;SDS011;10195;50.868;4.382;2023-04-01T18:52:17;9.83;;;6.20;;
20069;SDS011;10195;50.868;4.382;2023-04-01T18:55:14;8.87;;;5.43;;
20069;SDS011;10195;50.868;4.382;2023-04-01T18:57:50;8.67;;;6.30;;
20069;SDS011;10195;50.868;4.382;2023-04-01T19:00:27;9.03;;;6.30;;
20069;SDS011;10195;50.868;4.382;2023-04-01T19:05:36;9.03;;;6.23;;
20069;SDS011;10195;50.868;4.382;2023-04-01T19:08:25;10.97;;;7.03;;
20069;SDS011;10195;50.868;4.382;2023-04-01T19:17:16;14.33;;;8.60;;
20069;SDS011;10195;50.868;4.382;2023-04-01T19:25:38;14.83;;;10.70;;
20069;SDS011;10195;50.868;4.382;2023-04-01T19:28:30;16.33;;;11.17;;
20069;SDS011;10195;50.868;4.382;2023-04-01T19:36:24;22.90;;;14.17;;
20069;SDS011;10195;50.868;4.382;2023-04-01T19:38:56;20.83;;;12.40;;
20069;SDS011;10195;50.868;4.382;2023-04-01T19:41:44;28.37;;;16.17;;
20069;SDS011;10195;50.868;4.382;2023-04-01T19:52:59;24.87;;;12.37;;
20069;SDS011;10195;50.868;4.382;2023-04-01T19:55:37;28.93;;;11.53;;
20069;SDS011;10195;50.868;4.382;2023-04-01T20:01:34;14.60;;;11.30;;
20069;SDS011;10195;50.868;4.382;2023-04-01T20:12:10;19.30;;;10.77;;
20069;SDS011;10195;50.868;4.382;2023-04-01T20:14:45;18.63;;;10.37;;
20069;SDS011;10195;50.868;4.382;2023-04-01T20:19:50;16.77;;;11.50;;
20069;SDS011;10195;50.868;4.382;2023-04-01T20:25:26;21.57;;;10.03;;
20069;SDS011;10195;50.868;4.382;2023-04-01T20:44:01;18.43;;;9.63;;
20069;SDS011;10195;50.868;4.382;2023-04-01T20:49:40;17.40;;;9.70;;
20069;SDS011;10195;50.868;4.382;2023-04-01T20:54:53;15.33;;;7.80;;
20069;SDS011;10195;50.868;4.382;2023-04-01T21:00:22;18.10;;;9.53;;
20069;SDS011;10195;50.868;4.382;2023-04-01T21:14:01;22.67;;;12.80;;
20069;SDS011;10195;50.868;4.382;2023-04-01T21:22:51;21.73;;;12.93;;
20069;SDS011;10195;50.868;4.382;2023-04-01T21:34:04;21.43;;;12.63;;
20069;SDS011;10195;50.868;4.382;2023-04-01T22:14:33;18.20;;;13.00;;
20069;SDS011;10195;50.868;4.382;2023-04-01T22:17:10;19.63;;;12.90;;
20069;SDS011;10195;50.868;4.382;2023-04-01T22:19:59;15.20;;;11.37;;
20069;SDS011;10195;50.868;4.382;2023-04-01T22:22:52;11.20;;;8.43;;
20069;SDS011;10195;50.868;4.382;2023-04-01T22:28:24;12.17;;;9.60;;
20069;SDS011;10195;50.868;4.382;2023-04-01T22:30:55;9.10;;;6.60;;
20069;SDS011;10195;50.868;4.382;2023-04-01T22:36:02;16.03;;;13.20;;
20069;SDS011;10195;50.868;4.382;2023-04-01T22:44:45;20.03;;;15.00;;
20069;SDS011;10195;50.868;4.382;2023-04-01T22:47:21;18.17;;;14.47;;
20069;SDS011;10195;50.868;4.382;2023-04-01T22:56:17;21.60;;;16.17;;
20069;SDS011;10195;50.868;4.382;2023-04-01T22:59:31;25.83;;;17.37;;
20069;SDS011;10195;50.868;4.382;2023-04-01T23:01:55;21.03;;;16.83;;
20069;SDS011;10195;50.868;4.382;2023-04-01T23:04:28;21.30;;;16.63;;
20069;SDS011;10195;50.868;4.382;2023-04-01T23:06:57;18.83;;;13.30;;
20069;SDS011;10195;50.868;4.382;2023-04-01T23:09:31;10.67;;;7.53;;
20069;SDS011;10195;50.868;4.382;2023-04-01T23:12:03;9.50;;;7.17;;
20069;SDS011;10195;50.868;4.382;2023-04-01T23:14:41;15.83;;;7.93;;
20069;SDS011;10195;50.868;4.382;2023-04-01T23:22:49;13.07;;;8.60;;
20069;SDS011;10195;50.868;4.382;2023-04-01T23:30:51;17.57;;;14.00;;
20069;SDS011;10195;50.868;4.382;2023-04-01T23:35:46;19.20;;;13.67;;
20069;SDS011;10195;50.868;4.382;2023-04-01T23:38:16;19.07;;;14.57;;
20069;SDS011;10195;50.868;4.382;2023-04-01T23:40:42;19.30;;;14.00;;
20069;SDS011;10195;50.868;4.382;2023-04-01T23:46:05;18.37;;;14.63;;
20069;SDS011;10195;50.868;4.382;2023-04-01T23:48:34;18.43;;;14.03;;
20069;SDS011;10195;50.868;4.382;2023-04-01T23:51:13;21.30;;;16.90;;
20069;SDS011;10195;50.868;4.382;2023-04-01T23:53:47;22.10;;;17.97;;
20069;SDS011;10195;50.868;4.382;2023-04-01T23:56:39;20.73;;;16.37;;
20069;SDS011;10195;50.868;4.382;2023-04-01T23:59:14;22.10;;;16.23;;
